Time;durP1;ratioP1;P1;durP2;ratioP2;P2;SDS_P1;SDS_P2;PMS_P1;PMS_P2;Temp;Humidity;BMP_temperature;BMP_pressure;BME280_temperature;BME280_humidity;BME280_pressure;Samples;Min_cycle;Max_cycle;Signal;HPM_P1;HPM_P2
2023/03/16 00:01:04;;;;;;;8.55;2.85;;;7.90;99.90;;;;;;5050220;28;20426;-55
2023/03/16 00:03:30;;;;;;;11.38;3.58;;;7.90;99.90;;;;;;5050048;28;20131;-52
2023/03/16 00:05:55;;;;;;;18.30;3.63;;;7.90;99.90;;;;;;5032437;28;20112;-56
2023/03/16 00:08:21;;;;;;;17.63;3.22;;;7.90;99.90;;;;;;5050341;28;20025;-49
2023/03/16 00:10:47;;;;;;;9.23;3.20;;;8.00;99.90;;;;;;5050303;28;20060;-52
2023/03/16 00:13:18;;;;;;;11.55;4.35;;;8.00;99.90;;;;;;5050217;28;20025;-50
2023/03/16 00:15:55;;;;;;;15.25;3.38;;;8.00;99.90;;;;;;5049577;28;20045;-49
2023/03/16 00:18:26;;;;;;;12.65;3.63;;;8.00;99.90;;;;;;5050424;28;20032;-54
2023/03/16 00:20:57;;;;;;;12.55;3.85;;;8.00;99.90;;;;;;5049481;28;20033;-55
2023/03/16 00:23:26;;;;;;;17.80;3.55;;;8.00;99.90;;;;;;5042147;28;20204;-53
2023/03/16 00:25:56;;;;;;;9.10;2.90;;;8.00;99.90;;;;;;5048321;28;20393;-52
2023/03/16 00:28:22;;;;;;;12.77;2.95;;;8.10;99.90;;;;;;5042562;28;20104;-49
2023/03/16 00:30:48;;;;;;;16.33;3.17;;;8.10;99.90;;;;;;5049553;28;20166;-50
2023/03/16 00:33:14;;;;;;;13.57;3.65;;;8.10;99.90;;;;;;5053821;28;20522;-52
2023/03/16 00:35:48;;;;;;;13.05;3.03;;;8.10;99.90;;;;;;5049458;28;20047;-49
2023/03/16 00:38:14;;;;;;;14.65;3.00;;;8.10;99.90;;;;;;5046138;28;20025;-49
2023/03/16 00:40:40;;;;;;;10.73;2.80;;;8.10;99.90;;;;;;5048836;28;20117;-49
2023/03/16 00:43:05;;;;;;;12.40;3.10;;;8.10;99.90;;;;;;5045191;28;20025;-50
2023/03/16 00:45:31;;;;;;;18.63;3.50;;;8.20;99.90;;;;;;5048332;28;20090;-50
2023/03/16 00:47:57;;;;;;;13.65;2.95;;;8.20;99.90;;;;;;5052915;28;20025;-49
2023/03/16 00:50:22;;;;;;;10.90;3.28;;;8.20;99.90;;;;;;5046504;28;20044;-52
2023/03/16 00:52:48;;;;;;;15.00;3.63;;;8.30;99.90;;;;;;5050831;28;20585;-51
2023/03/16 00:55:14;;;;;;;10.63;3.05;;;8.30;99.90;;;;;;5045307;28;20048;-53
2023/03/16 00:57:40;;;;;;;15.07;3.38;;;8.30;99.90;;;;;;5044756;28;20052;-51
2023/03/16 01:00:11;;;;;;;12.77;3.47;;;8.30;99.90;;;;;;5042015;28;20104;-49
2023/03/16 01:02:37;;;;;;;13.73;3.00;;;8.40;99.90;;;;;;5051882;28;20096;-52
2023/03/16 01:05:04;;;;;;;13.50;2.80;;;8.40;99.90;;;;;;5050879;28;20032;-52
2023/03/16 01:07:30;;;;;;;11.02;2.60;;;8.40;99.90;;;;;;5039408;28;20105;-53
2023/03/16 01:09:57;;;;;;;27.45;3.25;;;8.40;99.90;;;;;;5043472;28;20458;-54
2023/03/16 01:12:23;;;;;;;16.27;3.35;;;8.40;99.90;;;;;;5038989;28;20029;-54
2023/03/16 01:14:48;;;;;;;18.05;3.38;;;8.50;99.90;;;;;;5042435;28;20047;-56
2023/03/16 01:17:16;;;;;;;13.77;3.75;;;8.50;99.90;;;;;;5050117;28;20029;-56
2023/03/16 01:19:42;;;;;;;19.45;3.50;;;8.50;99.90;;;;;;5050020;28;20029;-57
2023/03/16 01:22:09;;;;;;;14.77;3.20;;;8.50;99.90;;;;;;5049697;28;20052;-51
2023/03/16 01:24:36;;;;;;;13.07;3.15;;;8.50;99.90;;;;;;5037284;28;20471;-56
2023/03/16 01:27:03;;;;;;;14.02;3.88;;;8.60;99.90;;;;;;5041021;28;20025;-52
2023/03/16 01:29:30;;;;;;;14.48;2.75;;;8.50;99.90;;;;;;5042727;28;20022;-54
2023/03/16 01:31:55;;;;;;;15.48;3.28;;;8.60;99.90;;;;;;5038082;28;20033;-53
2023/03/16 01:34:22;;;;;;;14.80;3.28;;;8.50;99.90;;;;;;5042711;28;20462;-52
2023/03/16 01:36:48;;;;;;;16.02;3.70;;;8.50;99.90;;;;;;5046567;28;20067;-55
2023/03/16 01:39:15;;;;;;;15.70;4.35;;;8.50;99.90;;;;;;5046058;28;20036;-53
2023/03/16 01:41:42;;;;;;;14.15;3.80;;;8.40;99.90;;;;;;5049386;28;20490;-57
2023/03/16 01:44:23;;;;;;;16.08;3.40;;;8.40;99.90;;;;;;5049589;28;20013;-50
2023/03/16 01:46:49;;;;;;;24.45;6.05;;;8.50;99.90;;;;;;5045024;28;20024;-51
2023/03/16 01:49:26;;;;;;;14.25;2.90;;;8.50;99.90;;;;;;5034366;28;20021;-51
2023/03/16 01:52:13;;;;;;;19.08;4.00;;;8.50;99.90;;;;;;5048410;28;20428;-54
2023/03/16 01:54:47;;;;;;;15.48;3.35;;;8.50;99.90;;;;;;5037095;28;20039;-59
2023/03/16 01:57:18;;;;;;;24.33;3.75;;;8.60;99.90;;;;;;5039857;28;20063;-53
2023/03/16 01:59:56;;;;;;;12.98;3.55;;;8.60;99.90;;;;;;5049685;28;20062;-50
2023/03/16 02:02:29;;;;;;;19.42;3.83;;;8.70;99.90;;;;;;5044707;28;20017;-52
2023/03/16 02:05:14;;;;;;;11.10;3.60;;;8.70;99.90;;;;;;5040131;28;20688;-52
2023/03/16 02:07:45;;;;;;;21.23;4.07;;;8.80;99.90;;;;;;5035302;28;20075;-52
2023/03/16 02:10:12;;;;;;;14.90;3.05;;;8.70;99.90;;;;;;5046379;28;20478;-52
2023/03/16 02:12:38;;;;;;;19.23;3.60;;;8.70;99.90;;;;;;5051329;28;20025;-52
2023/03/16 02:15:04;;;;;;;15.68;3.80;;;8.80;99.90;;;;;;5050874;28;20052;-51
2023/03/16 02:17:32;;;;;;;17.17;3.38;;;8.80;99.90;;;;;;5050301;28;20036;-54
2023/03/16 02:20:17;;;;;;;20.55;3.80;;;8.80;99.90;;;;;;5050693;28;20029;-49
2023/03/16 02:22:49;;;;;;;13.25;2.75;;;8.90;99.90;;;;;;5044723;28;20010;-49
2023/03/16 02:25:17;;;;;;;22.27;3.83;;;8.80;99.90;;;;;;5044670;28;20264;-52
2023/03/16 02:27:51;;;;;;;14.30;3.60;;;8.80;99.90;;;;;;5032711;28;20024;-50
2023/03/16 02:30:19;;;;;;;14.23;4.05;;;8.80;99.90;;;;;;5046536;28;20115;-54
2023/03/16 02:32:47;;;;;;;18.23;3.88;;;8.70;99.90;;;;;;5041647;28;20056;-56
2023/03/16 02:35:13;;;;;;;15.55;3.80;;;8.70;99.90;;;;;;5046159;28;20040;-49
2023/03/16 02:37:40;;;;;;;14.52;4.35;;;8.70;99.90;;;;;;5049854;28;20025;-55
2023/03/16 02:40:32;;;;;;;18.90;4.90;;;8.70;99.90;;;;;;5033391;28;20652;-50
2023/03/16 02:43:12;;;;;;;16.30;4.50;;;8.70;99.90;;;;;;5051074;28;20025;-55
2023/03/16 02:45:57;;;;;;;19.17;4.75;;;8.70;99.90;;;;;;5050960;28;20025;-55
2023/03/16 02:48:28;;;;;;;16.90;4.30;;;8.70;99.90;;;;;;5033329;28;20104;-50
2023/03/16 02:50:54;;;;;;;15.65;4.05;;;8.70;99.90;;;;;;5049410;28;20107;-55
2023/03/16 02:53:20;;;;;;;22.75;4.57;;;8.70;99.90;;;;;;5042606;28;20028;-52
2023/03/16 02:55:46;;;;;;;22.55;4.30;;;8.70;99.90;;;;;;5050628;28;20079;-49
2023/03/16 02:58:13;;;;;;;22.48;4.82;;;8.70;99.90;;;;;;5050892;28;20036;-55
2023/03/16 03:00:39;;;;;;;17.65;3.78;;;8.70;99.90;;;;;;5050998;28;20074;-53
2023/03/16 03:03:07;;;;;;;18.55;4.18;;;8.80;99.90;;;;;;5050435;28;20024;-54
2023/03/16 03:05:33;;;;;;;17.00;3.70;;;8.80;99.90;;;;;;5032379;28;20029;-55
2023/03/16 03:07:58;;;;;;;15.10;3.85;;;8.80;99.90;;;;;;5050437;28;20039;-51
2023/03/16 03:10:24;;;;;;;16.70;3.67;;;8.90;99.90;;;;;;5050363;28;20040;-48
2023/03/16 03:12:50;;;;;;;14.98;3.90;;;8.90;99.90;;;;;;5032613;28;20110;-51
2023/03/16 03:15:17;;;;;;;16.67;4.03;;;8.90;99.90;;;;;;5050409;28;20128;-49
2023/03/16 03:17:44;;;;;;;16.77;4.78;;;9.00;99.90;;;;;;5050655;28;20025;-55
2023/03/16 03:20:18;;;;;;;15.50;3.55;;;9.00;99.90;;;;;;5050266;28;20482;-50
2023/03/16 03:22:46;;;;;;;14.25;3.72;;;9.00;99.90;;;;;;5043444;28;20027;-46
2023/03/16 03:25:13;;;;;;;12.45;4.22;;;9.00;99.90;;;;;;5048245;28;20547;-49
2023/03/16 03:27:41;;;;;;;17.55;4.60;;;9.00;99.90;;;;;;5050207;28;20033;-56
2023/03/16 03:30:12;;;;;;;16.25;4.40;;;9.00;99.90;;;;;;5050369;28;20028;-54
2023/03/16 03:32:38;;;;;;;11.43;4.30;;;9.00;99.90;;;;;;5050424;28;20036;-51
2023/03/16 03:35:05;;;;;;;14.98;4.18;;;9.00;99.90;;;;;;5050142;28;20044;-49
2023/03/16 03:37:31;;;;;;;14.98;5.60;;;9.00;99.90;;;;;;5050286;28;20021;-49
2023/03/16 03:39:56;;;;;;;11.90;4.68;;;9.00;99.90;;;;;;5050273;28;20055;-53
2023/03/16 03:42:22;;;;;;;16.00;4.90;;;9.00;99.90;;;;;;5050393;28;20021;-54
2023/03/16 03:44:50;;;;;;;16.00;5.07;;;9.00;99.90;;;;;;5050185;28;20029;-54
2023/03/16 03:47:16;;;;;;;16.13;5.05;;;9.00;99.90;;;;;;5050382;28;20049;-48
2023/03/16 03:49:41;;;;;;;19.38;5.72;;;9.00;99.90;;;;;;5051319;28;20021;-48
2023/03/16 03:52:07;;;;;;;20.75;5.30;;;8.90;99.90;;;;;;5051087;28;20051;-48
2023/03/16 03:54:33;;;;;;;14.65;4.85;;;8.90;99.90;;;;;;5042726;28;20049;-50
2023/03/16 03:56:59;;;;;;;18.58;4.75;;;8.90;99.90;;;;;;5035334;28;20109;-48
2023/03/16 03:59:24;;;;;;;20.08;4.97;;;8.90;99.90;;;;;;5049791;28;20024;-53
2023/03/16 04:01:52;;;;;;;20.45;5.57;;;8.80;99.90;;;;;;5032734;28;20033;-49
2023/03/16 04:04:18;;;;;;;17.38;4.80;;;8.80;99.90;;;;;;5051519;28;20028;-50
2023/03/16 04:06:44;;;;;;;14.02;4.80;;;8.80;99.90;;;;;;5054197;28;20426;-56
2023/03/16 04:09:10;;;;;;;14.15;4.40;;;8.80;99.90;;;;;;5053795;28;20029;-53
2023/03/16 04:11:36;;;;;;;21.70;5.72;;;8.80;99.90;;;;;;5054009;28;20037;-56
2023/03/16 04:14:02;;;;;;;19.58;5.43;;;8.80;99.90;;;;;;5053909;28;20088;-48
2023/03/16 04:16:28;;;;;;;13.77;4.25;;;8.80;99.90;;;;;;5053682;28;20362;-50
2023/03/16 04:18:54;;;;;;;24.20;5.55;;;8.80;99.90;;;;;;5036020;28;20037;-52
2023/03/16 04:21:21;;;;;;;18.67;4.75;;;8.80;99.90;;;;;;5043628;28;20052;-52
2023/03/16 04:23:48;;;;;;;18.83;4.50;;;8.90;99.90;;;;;;5053052;28;20040;-49
2023/03/16 04:26:14;;;;;;;18.75;4.38;;;8.80;99.90;;;;;;5053929;28;20095;-49
2023/03/16 04:28:39;;;;;;;15.85;3.97;;;8.80;99.90;;;;;;5053643;28;20446;-48
2023/03/16 04:31:07;;;;;;;19.40;4.72;;;8.90;99.90;;;;;;5053383;28;20072;-50
2023/03/16 04:33:34;;;;;;;17.30;3.95;;;8.90;99.90;;;;;;5053293;28;20032;-50
2023/03/16 04:36:01;;;;;;;18.27;4.18;;;8.90;99.90;;;;;;5053540;28;20519;-47
2023/03/16 04:38:27;;;;;;;14.02;3.85;;;8.90;99.90;;;;;;5053479;28;20043;-48
2023/03/16 04:40:53;;;;;;;22.45;4.68;;;8.90;99.90;;;;;;5053730;28;20104;-48
2023/03/16 04:43:18;;;;;;;13.85;3.92;;;8.90;99.90;;;;;;5053554;28;20452;-48
2023/03/16 04:45:44;;;;;;;19.23;4.22;;;8.90;99.90;;;;;;5053452;28;20025;-47
2023/03/16 04:48:10;;;;;;;15.05;3.92;;;9.00;99.90;;;;;;5035493;28;20389;-51
2023/03/16 04:50:35;;;;;;;14.38;3.53;;;9.00;99.90;;;;;;5051656;28;20048;-51
2023/03/16 04:53:03;;;;;;;21.83;4.10;;;9.00;99.90;;;;;;5035088;28;20033;-51
2023/03/16 04:55:29;;;;;;;18.30;4.30;;;9.00;99.90;;;;;;5053148;28;20032;-50
2023/03/16 04:57:55;;;;;;;16.92;3.90;;;9.00;99.90;;;;;;5035518;28;20024;-50
2023/03/16 05:00:22;;;;;;;16.17;4.30;;;9.00;99.90;;;;;;5053319;28;20033;-53
2023/03/16 05:02:49;;;;;;;18.70;5.55;;;9.00;99.90;;;;;;5052994;28;20021;-53
2023/03/16 05:05:15;;;;;;;20.48;5.25;;;9.10;99.90;;;;;;5052973;28;20104;-52
2023/03/16 05:07:41;;;;;;;12.40;3.78;;;9.00;99.90;;;;;;5052894;28;20052;-48
2023/03/16 05:10:12;;;;;;;19.42;4.28;;;9.10;99.90;;;;;;5053148;28;20028;-49
2023/03/16 05:12:38;;;;;;;18.08;4.20;;;9.10;99.90;;;;;;5052697;28;20120;-51
2023/03/16 05:15:05;;;;;;;13.15;3.90;;;9.10;99.90;;;;;;5052474;28;20128;-49
2023/03/16 05:17:31;;;;;;;16.88;4.30;;;9.10;99.90;;;;;;5052217;28;20108;-53
2023/03/16 05:19:56;;;;;;;20.73;4.97;;;9.10;99.90;;;;;;5052713;28;20021;-49
2023/03/16 05:22:22;;;;;;;12.48;4.30;;;9.10;99.90;;;;;;5046905;28;20032;-48
2023/03/16 05:24:48;;;;;;;12.68;3.85;;;9.10;99.90;;;;;;5052796;28;20028;-48
2023/03/16 05:27:14;;;;;;;12.57;4.10;;;9.00;99.90;;;;;;5052575;28;20035;-48
2023/03/16 05:29:44;;;;;;;18.63;5.25;;;9.00;99.90;;;;;;5034821;28;20055;-53
2023/03/16 05:32:10;;;;;;;14.75;4.30;;;9.00;99.90;;;;;;5052586;28;20021;-54
2023/03/16 05:34:36;;;;;;;10.18;3.33;;;9.00;99.90;;;;;;5052267;28;20397;-48
2023/03/16 05:37:02;;;;;;;13.00;3.70;;;9.00;99.90;;;;;;5052454;28;20034;-46
2023/03/16 05:39:29;;;;;;;12.68;3.35;;;9.00;99.90;;;;;;5052386;28;20508;-54
2023/03/16 05:41:56;;;;;;;19.08;3.42;;;9.00;99.90;;;;;;5052264;28;20421;-54
2023/03/16 05:44:23;;;;;;;14.23;3.40;;;9.00;99.90;;;;;;5052215;28;20024;-50
2023/03/16 05:46:49;;;;;;;12.02;3.47;;;9.00;99.90;;;;;;5052245;28;20505;-51
2023/03/16 05:49:15;;;;;;;11.70;2.83;;;9.00;99.90;;;;;;5052079;28;20047;-51
2023/03/16 05:51:41;;;;;;;13.70;3.47;;;9.00;99.90;;;;;;5051047;28;20470;-52
2023/03/16 05:54:07;;;;;;;12.90;3.30;;;9.00;99.90;;;;;;5051869;28;20033;-51
2023/03/16 05:56:33;;;;;;;11.82;3.17;;;9.00;99.90;;;;;;5051981;28;20049;-49
2023/03/16 05:58:59;;;;;;;10.00;3.13;;;9.00;99.90;;;;;;5051787;28;20108;-56
2023/03/16 06:01:25;;;;;;;9.98;2.90;;;9.00;99.90;;;;;;5051757;28;20099;-49
2023/03/16 06:03:51;;;;;;;17.15;3.63;;;9.10;99.90;;;;;;5051963;28;20032;-56
2023/03/16 06:06:21;;;;;;;7.75;3.28;;;9.00;99.90;;;;;;5052062;28;20017;-50
2023/03/16 06:08:47;;;;;;;9.32;2.95;;;9.00;99.90;;;;;;5051778;28;20021;-48
2023/03/16 06:11:13;;;;;;;6.40;2.70;;;9.10;99.90;;;;;;5051587;28;20031;-50
2023/03/16 06:13:39;;;;;;;8.38;2.97;;;9.10;99.90;;;;;;5051737;28;20036;-54
2023/03/16 06:16:05;;;;;;;12.80;3.17;;;9.10;99.90;;;;;;5033307;28;20045;-55
2023/03/16 06:18:34;;;;;;;11.85;3.10;;;9.10;99.90;;;;;;5051638;28;20077;-53
2023/03/16 06:21:00;;;;;;;11.27;2.97;;;9.10;99.90;;;;;;5043163;28;20029;-55
2023/03/16 06:23:25;;;;;;;7.35;3.40;;;9.10;99.90;;;;;;5051115;28;20017;-50
2023/03/16 06:25:54;;;;;;;5.60;2.28;;;9.10;99.90;;;;;;5051305;28;20039;-49
2023/03/16 06:28:19;;;;;;;5.53;1.98;;;9.10;99.90;;;;;;5050260;28;20025;-57
2023/03/16 06:30:45;;;;;;;7.95;1.55;;;9.10;99.90;;;;;;5051263;28;20025;-52
2023/03/16 06:33:11;;;;;;;7.80;1.70;;;9.10;99.90;;;;;;5051339;28;20013;-52
2023/03/16 06:35:36;;;;;;;6.57;1.30;;;9.10;99.90;;;;;;5051089;28;20086;-50
2023/03/16 06:38:02;;;;;;;6.35;1.33;;;9.10;99.90;;;;;;5051081;28;20087;-56
2023/03/16 06:40:28;;;;;;;4.05;1.50;;;9.10;99.90;;;;;;5051312;28;20051;-47
2023/03/16 06:42:54;;;;;;;6.28;2.05;;;9.10;99.90;;;;;;5051266;28;20669;-50
2023/03/16 06:45:24;;;;;;;5.80;2.35;;;9.10;99.90;;;;;;5050578;28;20039;-50
2023/03/16 06:47:50;;;;;;;6.00;2.55;;;9.10;99.90;;;;;;5051262;28;20442;-55
2023/03/16 06:50:16;;;;;;;5.60;3.22;;;9.00;99.90;;;;;;5048342;28;20477;-56
2023/03/16 06:52:41;;;;;;;6.68;3.65;;;9.00;99.90;;;;;;5032848;28;20020;-53
2023/03/16 06:55:08;;;;;;;14.27;4.50;;;9.00;99.90;;;;;;5050545;28;20122;-48
2023/03/16 06:57:33;;;;;;;12.70;5.13;;;9.00;99.90;;;;;;5050950;28;20208;-47
2023/03/16 06:59:59;;;;;;;15.20;5.55;;;9.00;99.90;;;;;;5032901;28;20556;-47
2023/03/16 07:02:25;;;;;;;17.40;5.20;;;9.00;99.90;;;;;;5050810;28;20103;-47
2023/03/16 07:04:51;;;;;;;13.13;4.43;;;9.00;99.90;;;;;;5050957;28;20025;-49
2023/03/16 07:07:18;;;;;;;14.05;5.28;;;9.00;99.90;;;;;;5050732;28;20394;-54
2023/03/16 07:09:43;;;;;;;12.63;4.45;;;9.00;99.90;;;;;;5032823;28;20035;-49
2023/03/16 07:12:09;;;;;;;13.48;4.53;;;9.00;99.90;;;;;;5050787;28;20468;-48
2023/03/16 07:14:35;;;;;;;12.00;4.13;;;9.00;99.90;;;;;;5049915;28;20401;-56
2023/03/16 07:17:01;;;;;;;16.70;4.68;;;9.00;99.90;;;;;;5050568;28;20488;-48
2023/03/16 07:19:27;;;;;;;11.88;3.33;;;9.00;99.90;;;;;;5050333;28;20024;-47
2023/03/16 07:21:53;;;;;;;8.15;2.60;;;9.00;99.90;;;;;;5024795;28;20029;-47
2023/03/16 07:24:19;;;;;;;11.68;3.47;;;9.00;99.90;;;;;;5044105;28;20102;-51
2023/03/16 07:26:45;;;;;;;12.02;2.50;;;9.10;99.90;;;;;;5032643;28;20021;-48
2023/03/16 07:29:12;;;;;;;9.60;2.58;;;9.00;99.90;;;;;;5050515;28;20021;-47
2023/03/16 07:31:38;;;;;;;13.73;3.08;;;9.10;99.90;;;;;;5050610;28;20210;-48
2023/03/16 07:34:04;;;;;;;12.93;2.97;;;9.10;99.90;;;;;;5050532;28;20378;-49
2023/03/16 07:36:30;;;;;;;14.30;3.08;;;9.10;99.90;;;;;;5050377;28;20073;-50
2023/03/16 07:38:55;;;;;;;13.00;3.40;;;9.10;99.90;;;;;;5052144;28;20025;-50
2023/03/16 07:41:21;;;;;;;18.95;2.92;;;9.10;99.90;;;;;;5056752;28;20029;-48
2023/03/16 07:43:47;;;;;;;14.10;2.95;;;9.10;99.90;;;;;;5056982;28;20021;-51
2023/03/16 07:46:13;;;;;;;14.80;3.22;;;9.20;99.90;;;;;;5056949;28;20028;-51
2023/03/16 07:48:41;;;;;;;4.65;2.13;;;9.30;99.90;;;;;;5057064;28;20420;-48
2023/03/16 07:51:08;;;;;;;20.13;2.80;;;9.30;99.90;;;;;;5054489;28;20033;-51
2023/03/16 07:53:37;;;;;;;12.00;2.80;;;9.40;99.90;;;;;;5038633;28;20138;-50
2023/03/16 07:56:03;;;;;;;15.02;2.38;;;9.40;99.90;;;;;;5052482;28;20656;-50
2023/03/16 07:58:30;;;;;;;10.40;3.05;;;9.40;99.90;;;;;;5048411;28;20020;-54
2023/03/16 08:01:00;;;;;;;10.85;2.70;;;9.40;99.90;;;;;;5038748;28;20028;-49
2023/03/16 08:03:27;;;;;;;13.10;3.40;;;9.40;99.90;;;;;;5056970;28;20024;-52
2023/03/16 08:05:52;;;;;;;17.52;3.47;;;9.40;99.90;;;;;;5054595;28;20021;-49
2023/03/16 08:08:19;;;;;;;11.90;2.92;;;9.40;99.90;;;;;;5054861;28;20043;-49
2023/03/16 08:10:47;;;;;;;12.75;4.07;;;9.40;99.90;;;;;;5054857;28;20607;-56
2023/03/16 08:13:12;;;;;;;16.00;3.85;;;9.50;99.90;;;;;;5054777;28;20032;-50
2023/03/16 08:15:38;;;;;;;20.38;3.95;;;9.50;99.90;;;;;;5054367;28;20067;-51
2023/03/16 08:18:05;;;;;;;11.18;4.18;;;9.50;99.90;;;;;;5056496;28;20016;-50
2023/03/16 08:20:32;;;;;;;12.02;3.97;;;9.50;99.90;;;;;;5056516;28;20028;-48
2023/03/16 08:22:58;;;;;;;16.40;3.28;;;9.50;99.90;;;;;;5038600;28;20024;-47
2023/03/16 08:25:24;;;;;;;15.65;3.63;;;9.60;99.90;;;;;;5054590;28;20473;-48
2023/03/16 08:27:50;;;;;;;13.00;2.90;;;9.60;99.90;;;;;;5050436;28;20025;-48
2023/03/16 08:30:16;;;;;;;14.38;3.38;;;9.70;99.90;;;;;;5047791;28;20070;-47
2023/03/16 08:32:42;;;;;;;15.50;4.13;;;9.70;99.90;;;;;;5056138;28;20029;-50
2023/03/16 08:35:12;;;;;;;14.13;3.40;;;9.80;99.90;;;;;;5055768;28;20420;-54
2023/03/16 08:37:38;;;;;;;15.77;3.75;;;10.00;99.90;;;;;;5051656;28;20013;-46
2023/03/16 08:40:09;;;;;;;16.08;4.88;;;10.00;99.90;;;;;;5054024;28;20017;-49
2023/03/16 08:42:38;;;;;;;8.65;3.30;;;10.00;99.90;;;;;;5051157;28;20079;-47
2023/03/16 08:45:08;;;;;;;16.58;3.38;;;10.00;99.90;;;;;;5053067;28;20025;-47
2023/03/16 08:47:35;;;;;;;11.98;3.72;;;10.00;99.90;;;;;;5050455;28;20034;-47
2023/03/16 08:50:04;;;;;;;19.50;4.25;;;10.10;99.90;;;;;;5049813;28;20031;-47
2023/03/16 08:52:30;;;;;;;14.70;3.75;;;10.00;99.90;;;;;;5033465;28;20056;-47
2023/03/16 08:54:56;;;;;;;14.88;3.47;;;10.00;99.90;;;;;;5052303;28;20045;-47
2023/03/16 08:57:23;;;;;;;13.95;3.53;;;10.10;99.90;;;;;;5051353;28;20017;-47
2023/03/16 08:59:48;;;;;;;9.15;3.35;;;10.10;99.90;;;;;;5052950;28;20031;-48
2023/03/16 09:02:15;;;;;;;11.07;2.20;;;10.10;99.90;;;;;;5051524;28;20112;-47
2023/03/16 09:04:41;;;;;;;12.00;2.60;;;10.40;99.90;;;;;;5032381;28;20096;-49
2023/03/16 09:07:07;;;;;;;15.57;2.58;;;10.70;99.90;;;;;;5052334;28;20021;-47
2023/03/16 09:09:34;;;;;;;15.82;2.88;;;11.10;99.90;;;;;;5044320;28;20021;-48
2023/03/16 09:12:00;;;;;;;9.73;2.63;;;11.50;99.90;;;;;;5040993;28;20030;-49
2023/03/16 09:14:26;;;;;;;7.53;2.30;;;12.10;99.90;;;;;;5050677;28;20044;-48
2023/03/16 09:16:51;;;;;;;12.50;2.33;;;13.10;99.90;;;;;;5034777;28;20043;-53
2023/03/16 09:19:18;;;;;;;13.55;2.20;;;13.40;99.90;;;;;;5045834;28;20029;-48
2023/03/16 09:21:44;;;;;;;9.30;2.22;;;14.20;99.90;;;;;;5039519;28;20103;-52
2023/03/16 09:24:10;;;;;;;9.95;1.98;;;15.40;99.90;;;;;;5042756;28;20127;-52
2023/03/16 09:26:36;;;;;;;13.35;2.10;;;16.30;99.90;;;;;;5040028;28;20474;-52
2023/03/16 09:29:05;;;;;;;7.72;1.98;;;16.80;99.90;;;;;;5035589;28;20033;-48
2023/03/16 09:31:32;;;;;;;9.80;2.00;;;16.60;99.90;;;;;;5040564;28;20557;-55
2023/03/16 09:33:58;;;;;;;9.32;1.83;;;16.70;99.90;;;;;;5027667;28;20032;-50
2023/03/16 09:36:24;;;;;;;10.52;1.85;;;17.00;99.90;;;;;;5047328;28;20056;-42
2023/03/16 09:38:50;;;;;;;9.48;1.92;;;17.10;99.90;;;;;;5034402;28;20018;-49
2023/03/16 09:41:35;;;;;;;9.05;1.80;;;18.10;99.90;;;;;;5044276;28;20025;-47
2023/03/16 09:44:39;;;;;;;9.55;2.55;;;18.80;96.80;;;;;;5048951;28;20028;-43
2023/03/16 09:47:07;;;;;;;6.75;1.65;;;19.30;96.30;;;;;;5046115;28;20029;-43
2023/03/16 09:49:55;;;;;;;9.38;2.10;;;19.00;93.10;;;;;;5034264;28;20494;-50
2023/03/16 09:52:49;;;;;;;9.73;2.00;;;18.20;93.70;;;;;;5048110;28;20056;-53
2023/03/16 09:55:36;;;;;;;8.75;1.77;;;18.10;94.90;;;;;;5048175;28;20041;-51
2023/03/16 09:58:15;;;;;;;6.95;2.22;;;19.30;92.30;;;;;;5050216;28;20037;-52
2023/03/16 10:01:08;;;;;;;8.90;2.15;;;19.40;90.80;;;;;;5045165;28;20017;-43
2023/03/16 10:04:12;;;;;;;12.52;2.60;;;19.20;90.60;;;;;;5041651;28;20061;-43
2023/03/16 10:06:47;;;;;;;8.18;1.98;;;19.00;90.70;;;;;;5038566;28;20017;-47
2023/03/16 10:09:21;;;;;;;9.15;2.28;;;19.80;91.00;;;;;;5047515;28;20029;-47
2023/03/16 10:11:53;;;;;;;7.53;2.00;;;20.80;90.00;;;;;;5049501;28;20025;-45
2023/03/16 10:14:31;;;;;;;7.10;2.10;;;21.50;80.20;;;;;;5048738;28;20049;-46
2023/03/16 10:17:13;;;;;;;7.33;2.00;;;21.30;81.70;;;;;;5050149;28;20047;-46
2023/03/16 10:19:46;;;;;;;9.27;2.38;;;21.10;78.90;;;;;;5042527;28;20897;-45
2023/03/16 10:22:29;;;;;;;7.07;2.30;;;20.50;77.80;;;;;;5037419;28;20048;-48
2023/03/16 10:25:00;;;;;;;11.10;2.22;;;20.40;81.30;;;;;;5040681;28;20029;-50
2023/03/16 10:27:32;;;;;;;9.45;2.70;;;20.50;80.30;;;;;;5043068;28;20029;-44
2023/03/16 10:30:00;;;;;;;10.70;2.35;;;20.30;78.60;;;;;;5029262;28;20021;-49
2023/03/16 10:32:30;;;;;;;8.63;2.60;;;20.90;78.90;;;;;;5046589;28;20091;-46
2023/03/16 10:35:05;;;;;;;11.50;2.60;;;21.50;76.90;;;;;;5045008;28;20078;-45
2023/03/16 10:37:32;;;;;;;10.07;2.50;;;21.70;73.70;;;;;;5045145;28;20486;-45
2023/03/16 10:39:59;;;;;;;6.40;2.10;;;21.50;74.20;;;;;;5046548;28;20025;-46
2023/03/16 10:42:26;;;;;;;8.77;2.35;;;22.20;74.00;;;;;;5047515;28;20095;-54
2023/03/16 10:44:58;;;;;;;8.63;2.40;;;22.00;72.70;;;;;;5048424;28;20017;-53
2023/03/16 10:47:29;;;;;;;8.23;2.72;;;21.90;70.50;;;;;;5047576;28;20029;-50
2023/03/16 10:49:55;;;;;;;8.73;2.17;;;19.90;76.90;;;;;;5045380;28;20021;-54
2023/03/16 10:52:39;;;;;;;9.73;2.47;;;19.70;78.00;;;;;;5046457;28;20047;-48
2023/03/16 10:55:18;;;;;;;9.23;2.40;;;19.80;78.70;;;;;;5046138;28;20508;-50
2023/03/16 10:57:50;;;;;;;10.68;2.35;;;20.10;78.90;;;;;;5047117;28;20033;-46
2023/03/16 11:00:23;;;;;;;10.20;2.80;;;20.60;77.30;;;;;;5040160;28;20033;-41
2023/03/16 11:02:50;;;;;;;10.13;2.53;;;20.30;74.90;;;;;;5035130;28;20474;-44
2023/03/16 11:05:16;;;;;;;10.95;2.30;;;20.00;76.70;;;;;;5038471;28;20095;-45
2023/03/16 11:08:18;;;;;;;7.53;2.10;;;19.50;78.30;;;;;;5039736;28;20021;-44
2023/03/16 11:10:46;;;;;;;8.48;2.65;;;18.90;78.40;;;;;;5037115;28;20057;-47
2023/03/16 11:13:18;;;;;;;8.18;2.45;;;18.70;81.40;;;;;;5047988;28;20087;-58
2023/03/16 11:15:59;;;;;;;9.80;2.45;;;19.00;80.30;;;;;;5048084;28;20077;-52
2023/03/16 11:18:29;;;;;;;6.15;1.95;;;19.50;78.60;;;;;;5045551;28;20037;-44
2023/03/16 11:20:56;;;;;;;7.45;2.15;;;20.20;76.70;;;;;;5046335;28;20108;-55
2023/03/16 11:23:30;;;;;;;7.90;2.13;;;20.30;75.60;;;;;;5044205;28;20075;-47
2023/03/16 11:26:01;;;;;;;12.00;2.53;;;20.10;74.90;;;;;;5050068;28;20035;-47
2023/03/16 11:28:40;;;;;;;7.13;1.85;;;19.80;76.30;;;;;;5049734;28;20029;-51
2023/03/16 11:31:27;;;;;;;12.68;2.45;;;19.40;76.40;;;;;;5043957;28;20020;-42
2023/03/16 11:33:54;;;;;;;9.55;2.90;;;19.80;77.20;;;;;;5043404;28;20117;-51
2023/03/16 11:36:20;;;;;;;6.13;2.38;;;19.60;76.30;;;;;;5048473;28;20040;-43
2023/03/16 11:38:59;;;;;;;8.63;2.63;;;19.50;76.70;;;;;;5043369;28;20088;-51
2023/03/16 11:41:40;;;;;;;9.68;2.53;;;18.80;78.80;;;;;;5031138;28;20106;-42
2023/03/16 11:44:50;;;;;;;9.48;2.65;;;18.10;78.60;;;;;;5044867;28;20100;-48
2023/03/16 11:47:50;;;;;;;9.82;2.72;;;17.10;82.30;;;;;;5006072;28;20310;-45
2023/03/16 11:50:27;;;;;;;8.00;2.78;;;17.40;84.00;;;;;;5024274;28;20037;-48
2023/03/16 11:53:10;;;;;;;8.27;2.42;;;17.10;81.90;;;;;;5030560;28;20517;-46
2023/03/16 11:55:41;;;;;;;8.88;2.67;;;16.70;85.30;;;;;;5030608;28;20087;-46
2023/03/16 11:58:32;;;;;;;9.98;2.75;;;16.10;86.60;;;;;;5029891;28;20496;-49
2023/03/16 12:01:20;;;;;;;8.38;3.00;;;15.80;88.90;;;;;;5030568;28;20032;-51
2023/03/16 12:04:12;;;;;;;7.90;2.25;;;15.30;90.70;;;;;;5028603;28;20062;-49
2023/03/16 12:07:16;;;;;;;6.35;2.38;;;15.00;90.90;;;;;;5035556;28;20072;-44
2023/03/16 12:09:57;;;;;;;7.93;2.10;;;14.60;92.00;;;;;;5028495;28;20631;-43
2023/03/16 12:12:36;;;;;;;7.97;2.35;;;14.20;92.70;;;;;;5028237;28;20026;-44
2023/03/16 12:15:23;;;;;;;6.97;1.92;;;14.00;93.50;;;;;;5029474;28;20498;-46
2023/03/16 12:17:53;;;;;;;8.13;1.92;;;13.70;94.50;;;;;;5039948;28;20131;-47
2023/03/16 12:20:23;;;;;;;8.23;1.88;;;13.70;95.50;;;;;;5043176;28;20038;-47
2023/03/16 12:23:01;;;;;;;7.63;1.95;;;13.60;95.30;;;;;;5039390;28;20051;-53
2023/03/16 12:25:33;;;;;;;10.85;2.45;;;13.50;95.90;;;;;;5036080;28;20064;-47
2023/03/16 12:28:03;;;;;;;10.57;2.17;;;13.60;96.90;;;;;;5045930;28;20032;-54
2023/03/16 12:30:57;;;;;;;7.97;2.30;;;13.60;96.20;;;;;;5047422;28;20059;-43
2023/03/16 12:33:31;;;;;;;9.10;2.00;;;13.80;96.70;;;;;;5033591;28;20025;-45
2023/03/16 12:36:18;;;;;;;4.68;1.58;;;14.80;95.10;;;;;;5034590;28;20044;-47
2023/03/16 12:38:49;;;;;;;5.05;1.50;;;15.00;92.90;;;;;;5034513;28;20433;-45
2023/03/16 12:41:15;;;;;;;7.97;2.22;;;14.40;93.40;;;;;;5031803;28;20029;-46
2023/03/16 12:43:46;;;;;;;7.97;2.15;;;14.10;94.30;;;;;;5053011;28;20021;-53
2023/03/16 12:46:52;;;;;;;5.95;1.55;;;13.90;94.80;;;;;;5053215;28;20021;-46
2023/03/16 12:49:19;;;;;;;8.38;1.70;;;13.70;95.10;;;;;;5044251;28;20025;-47
2023/03/16 12:51:47;;;;;;;6.82;1.80;;;13.70;96.40;;;;;;5045374;28;20025;-47
2023/03/16 12:54:24;;;;;;;5.60;1.80;;;13.70;94.70;;;;;;5045102;28;20390;-49
2023/03/16 12:56:52;;;;;;;5.28;1.52;;;13.60;94.90;;;;;;5031480;28;20067;-47
2023/03/16 12:59:24;;;;;;;7.25;1.80;;;13.60;94.60;;;;;;5028410;28;20032;-40